sensor_id;sensor_type;location;lat;lon;timestamp;P1;durP1;ratioP1;P2;durP2;ratioP2
38911;SDS011;28444;48.056;14.408;2022-07-23T00:00:17;20.30;;;15.90;;
38911;SDS011;28444;48.056;14.408;2022-07-23T00:02:44;24.38;;;16.95;;
38911;SDS011;28444;48.056;14.408;2022-07-23T00:05:11;22.85;;;16.42;;
38911;SDS011;28444;48.056;14.408;2022-07-23T00:07:38;24.98;;;16.52;;
38911;SDS011;28444;48.056;14.408;2022-07-23T00:10:05;24.40;;;17.27;;
38911;SDS011;28444;48.056;14.408;2022-07-23T00:12:33;22.67;;;16.92;;
38911;SDS011;28444;48.056;14.408;2022-07-23T00:15:00;21.13;;;16.58;;
38911;SDS011;28444;48.056;14.408;2022-07-23T00:17:28;19.25;;;16.85;;
38911;SDS011;28444;48.056;14.408;2022-07-23T00:19:55;21.60;;;17.00;;
38911;SDS011;28444;48.056;14.408;2022-07-23T00:22:22;25.27;;;16.90;;
38911;SDS011;28444;48.056;14.408;2022-07-23T00:24:49;20.23;;;16.48;;
38911;SDS011;28444;48.056;14.408;2022-07-23T00:27:36;19.40;;;16.25;;
38911;SDS011;28444;48.056;14.408;2022-07-23T00:30:02;18.90;;;15.35;;
38911;SDS011;28444;48.056;14.408;2022-07-23T00:32:30;20.13;;;16.83;;
38911;SDS011;28444;48.056;14.408;2022-07-23T00:35:18;20.23;;;15.35;;
38911;SDS011;28444;48.056;14.408;2022-07-23T00:37:47;21.02;;;17.00;;
38911;SDS011;28444;48.056;14.408;2022-07-23T00:40:14;20.08;;;17.90;;
38911;SDS011;28444;48.056;14.408;2022-07-23T00:42:41;20.95;;;16.38;;
38911;SDS011;28444;48.056;14.408;2022-07-23T00:45:08;17.90;;;15.18;;
38911;SDS011;28444;48.056;14.408;2022-07-23T00:47:35;23.38;;;15.23;;
38911;SDS011;28444;48.056;14.408;2022-07-23T00:50:03;19.35;;;15.40;;
38911;SDS011;28444;48.056;14.408;2022-07-23T00:52:31;19.73;;;14.82;;
38911;SDS011;28444;48.056;14.408;2022-07-23T00:54:59;26.20;;;15.77;;
38911;SDS011;28444;48.056;14.408;2022-07-23T00:57:26;22.95;;;14.63;;
38911;SDS011;28444;48.056;14.408;2022-07-23T00:59:54;15.90;;;13.13;;
38911;SDS011;28444;48.056;14.408;2022-07-23T01:02:21;18.25;;;14.13;;
38911;SDS011;28444;48.056;14.408;2022-07-23T01:04:48;18.65;;;14.60;;
38911;SDS011;28444;48.056;14.408;2022-07-23T01:07:15;17.65;;;13.70;;
38911;SDS011;28444;48.056;14.408;2022-07-23T01:09:42;19.45;;;14.55;;
38911;SDS011;28444;48.056;14.408;2022-07-23T01:12:10;15.63;;;13.15;;
38911;SDS011;28444;48.056;14.408;2022-07-23T01:14:37;18.92;;;14.88;;
38911;SDS011;28444;48.056;14.408;2022-07-23T01:17:03;19.05;;;14.45;;
38911;SDS011;28444;48.056;14.408;2022-07-23T01:19:31;23.92;;;15.10;;
38911;SDS011;28444;48.056;14.408;2022-07-23T01:21:58;18.30;;;13.85;;
38911;SDS011;28444;48.056;14.408;2022-07-23T01:24:28;19.08;;;15.40;;
38911;SDS011;28444;48.056;14.408;2022-07-23T01:26:55;20.40;;;15.52;;
38911;SDS011;28444;48.056;14.408;2022-07-23T01:29:22;20.00;;;15.48;;
38911;SDS011;28444;48.056;14.408;2022-07-23T01:31:49;19.77;;;16.40;;
38911;SDS011;28444;48.056;14.408;2022-07-23T01:34:15;23.60;;;17.10;;
38911;SDS011;28444;48.056;14.408;2022-07-23T01:36:42;17.25;;;13.90;;
38911;SDS011;28444;48.056;14.408;2022-07-23T01:39:09;17.45;;;12.95;;
38911;SDS011;28444;48.056;14.408;2022-07-23T01:41:36;16.15;;;12.63;;
38911;SDS011;28444;48.056;14.408;2022-07-23T01:44:03;17.50;;;12.40;;
38911;SDS011;28444;48.056;14.408;2022-07-23T01:46:30;14.10;;;11.77;;
38911;SDS011;28444;48.056;14.408;2022-07-23T01:48:56;18.70;;;12.10;;
38911;SDS011;28444;48.056;14.408;2022-07-23T01:51:24;14.27;;;12.25;;
38911;SDS011;28444;48.056;14.408;2022-07-23T01:53:50;14.50;;;12.02;;
38911;SDS011;28444;48.056;14.408;2022-07-23T01:56:17;15.57;;;11.32;;
38911;SDS011;28444;48.056;14.408;2022-07-23T01:58:48;16.98;;;11.35;;
38911;SDS011;28444;48.056;14.408;2022-07-23T02:01:15;18.25;;;12.25;;
38911;SDS011;28444;48.056;14.408;2022-07-23T02:03:42;15.38;;;11.60;;
38911;SDS011;28444;48.056;14.408;2022-07-23T02:06:09;15.68;;;11.25;;
38911;SDS011;28444;48.056;14.408;2022-07-23T02:08:35;17.98;;;11.40;;
38911;SDS011;28444;48.056;14.408;2022-07-23T02:11:02;15.77;;;11.43;;
38911;SDS011;28444;48.056;14.408;2022-07-23T02:13:29;18.38;;;12.43;;
38911;SDS011;28444;48.056;14.408;2022-07-23T02:15:59;15.65;;;11.07;;
38911;SDS011;28444;48.056;14.408;2022-07-23T02:18:26;12.98;;;10.25;;
38911;SDS011;28444;48.056;14.408;2022-07-23T02:20:53;13.02;;;10.43;;
38911;SDS011;28444;48.056;14.408;2022-07-23T02:23:19;11.05;;;9.55;;
38911;SDS011;28444;48.056;14.408;2022-07-23T02:25:46;12.93;;;9.70;;
38911;SDS011;28444;48.056;14.408;2022-07-23T02:28:14;16.48;;;11.05;;
38911;SDS011;28444;48.056;14.408;2022-07-23T02:30:41;11.52;;;9.57;;
38911;SDS011;28444;48.056;14.408;2022-07-23T02:33:08;13.10;;;10.38;;
38911;SDS011;28444;48.056;14.408;2022-07-23T02:35:35;14.52;;;11.10;;
38911;SDS011;28444;48.056;14.408;2022-07-23T02:38:02;12.07;;;10.25;;
38911;SDS011;28444;48.056;14.408;2022-07-23T02:40:28;13.75;;;10.88;;
38911;SDS011;28444;48.056;14.408;2022-07-23T02:42:55;9.82;;;8.82;;
38911;SDS011;28444;48.056;14.408;2022-07-23T02:45:22;11.73;;;9.43;;
38911;SDS011;28444;48.056;14.408;2022-07-23T02:47:49;13.10;;;9.98;;
38911;SDS011;28444;48.056;14.408;2022-07-23T02:50:15;13.02;;;9.02;;
38911;SDS011;28444;48.056;14.408;2022-07-23T02:52:42;11.85;;;7.93;;
38911;SDS011;28444;48.056;14.408;2022-07-23T02:55:09;10.43;;;8.75;;
38911;SDS011;28444;48.056;14.408;2022-07-23T02:57:37;11.40;;;9.23;;
38911;SDS011;28444;48.056;14.408;2022-07-23T03:00:04;9.73;;;7.30;;
38911;SDS011;28444;48.056;14.408;2022-07-23T03:02:33;9.20;;;7.93;;
38911;SDS011;28444;48.056;14.408;2022-07-23T03:05:00;13.93;;;8.52;;
38911;SDS011;28444;48.056;14.408;2022-07-23T03:07:27;9.35;;;7.50;;
38911;SDS011;28444;48.056;14.408;2022-07-23T03:09:54;12.10;;;7.90;;
38911;SDS011;28444;48.056;14.408;2022-07-23T03:12:20;15.30;;;8.45;;
38911;SDS011;28444;48.056;14.408;2022-07-23T03:14:47;15.85;;;8.40;;
38911;SDS011;28444;48.056;14.408;2022-07-23T03:17:14;11.43;;;7.72;;
38911;SDS011;28444;48.056;14.408;2022-07-23T03:19:41;8.13;;;7.25;;
38911;SDS011;28444;48.056;14.408;2022-07-23T03:22:07;12.25;;;7.43;;
38911;SDS011;28444;48.056;14.408;2022-07-23T03:24:34;9.48;;;7.53;;
38911;SDS011;28444;48.056;14.408;2022-07-23T03:27:27;8.02;;;7.22;;
38911;SDS011;28444;48.056;14.408;2022-07-23T03:29:57;8.38;;;6.82;;
38911;SDS011;28444;48.056;14.408;2022-07-23T03:32:25;10.52;;;7.40;;
38911;SDS011;28444;48.056;14.408;2022-07-23T03:34:53;11.60;;;7.80;;
38911;SDS011;28444;48.056;14.408;2022-07-23T03:37:20;11.50;;;7.25;;
38911;SDS011;28444;48.056;14.408;2022-07-23T03:39:47;10.40;;;6.72;;
38911;SDS011;28444;48.056;14.408;2022-07-23T03:42:14;10.88;;;7.57;;
38911;SDS011;28444;48.056;14.408;2022-07-23T03:44:41;10.52;;;7.80;;
38911;SDS011;28444;48.056;14.408;2022-07-23T03:47:08;10.13;;;7.60;;
38911;SDS011;28444;48.056;14.408;2022-07-23T03:49:34;8.23;;;7.28;;
38911;SDS011;28444;48.056;14.408;2022-07-23T03:52:01;10.18;;;8.18;;
38911;SDS011;28444;48.056;14.408;2022-07-23T03:54:28;8.27;;;6.97;;
38911;SDS011;28444;48.056;14.408;2022-07-23T03:56:55;11.63;;;7.00;;
38911;SDS011;28444;48.056;14.408;2022-07-23T03:59:21;10.18;;;7.50;;
38911;SDS011;28444;48.056;14.408;2022-07-23T04:01:49;10.88;;;7.82;;
38911;SDS011;28444;48.056;14.408;2022-07-23T04:04:17;9.85;;;7.55;;
38911;SDS011;28444;48.056;14.408;2022-07-23T04:06:44;8.02;;;6.78;;
38911;SDS011;28444;48.056;14.408;2022-07-23T04:09:10;10.27;;;7.65;;
38911;SDS011;28444;48.056;14.408;2022-07-23T04:11:37;10.00;;;8.27;;
38911;SDS011;28444;48.056;14.408;2022-07-23T04:14:04;14.65;;;7.30;;
38911;SDS011;28444;48.056;14.408;2022-07-23T04:16:30;9.98;;;7.57;;
38911;SDS011;28444;48.056;14.408;2022-07-23T04:18:58;8.07;;;6.72;;
38911;SDS011;28444;48.056;14.408;2022-07-23T04:21:25;12.63;;;8.20;;
38911;SDS011;28444;48.056;14.408;2022-07-23T04:23:52;10.63;;;7.65;;
38911;SDS011;28444;48.056;14.408;2022-07-23T04:26:18;8.45;;;6.22;;
38911;SDS011;28444;48.056;14.408;2022-07-23T04:28:45;9.20;;;7.63;;
38911;SDS011;28444;48.056;14.408;2022-07-23T04:31:12;10.93;;;6.85;;
38911;SDS011;28444;48.056;14.408;2022-07-23T04:33:39;10.60;;;7.13;;
38911;SDS011;28444;48.056;14.408;2022-07-23T04:36:05;8.70;;;6.78;;
38911;SDS011;28444;48.056;14.408;2022-07-23T04:38:32;9.00;;;6.25;;
38911;SDS011;28444;48.056;14.408;2022-07-23T04:40:59;13.73;;;6.68;;
38911;SDS011;28444;48.056;14.408;2022-07-23T04:43:26;9.05;;;6.03;;
38911;SDS011;28444;48.056;14.408;2022-07-23T04:45:53;9.02;;;6.57;;
38911;SDS011;28444;48.056;14.408;2022-07-23T04:48:21;9.07;;;6.18;;
38911;SDS011;28444;48.056;14.408;2022-07-23T04:50:47;8.05;;;5.88;;
38911;SDS011;28444;48.056;14.408;2022-07-23T04:53:14;7.07;;;5.47;;
38911;SDS011;28444;48.056;14.408;2022-07-23T04:55:41;7.55;;;5.82;;
38911;SDS011;28444;48.056;14.408;2022-07-23T04:58:07;10.02;;;5.65;;
38911;SDS011;28444;48.056;14.408;2022-07-23T05:00:34;6.38;;;5.03;;
38911;SDS011;28444;48.056;14.408;2022-07-23T05:03:01;8.02;;;5.18;;
38911;SDS011;28444;48.056;14.408;2022-07-23T05:05:27;6.15;;;5.47;;
38911;SDS011;28444;48.056;14.408;2022-07-23T05:07:54;6.95;;;6.25;;
38911;SDS011;28444;48.056;14.408;2022-07-23T05:10:21;6.30;;;5.25;;
38911;SDS011;28444;48.056;14.408;2022-07-23T05:12:52;8.57;;;5.07;;
38911;SDS011;28444;48.056;14.408;2022-07-23T05:15:19;6.85;;;4.88;;
38911;SDS011;28444;48.056;14.408;2022-07-23T05:17:46;5.43;;;4.68;;
38911;SDS011;28444;48.056;14.408;2022-07-23T05:20:13;7.70;;;5.75;;
38911;SDS011;28444;48.056;14.408;2022-07-23T05:22:40;7.07;;;5.45;;
38911;SDS011;28444;48.056;14.408;2022-07-23T05:25:07;6.63;;;5.40;;
38911;SDS011;28444;48.056;14.408;2022-07-23T05:27:34;9.02;;;6.20;;
38911;SDS011;28444;48.056;14.408;2022-07-23T05:30:01;7.32;;;5.03;;
38911;SDS011;28444;48.056;14.408;2022-07-23T05:32:28;8.27;;;5.22;;
38911;SDS011;28444;48.056;14.408;2022-07-23T05:34:55;5.53;;;5.03;;
38911;SDS011;28444;48.056;14.408;2022-07-23T05:37:21;5.72;;;4.93;;
38911;SDS011;28444;48.056;14.408;2022-07-23T05:39:48;7.03;;;5.78;;
38911;SDS011;28444;48.056;14.408;2022-07-23T05:42:14;17.67;;;5.45;;
38911;SDS011;28444;48.056;14.408;2022-07-23T05:44:41;11.60;;;5.40;;
38911;SDS011;28444;48.056;14.408;2022-07-23T05:47:08;7.68;;;5.72;;
38911;SDS011;28444;48.056;14.408;2022-07-23T05:49:35;8.75;;;6.03;;
38911;SDS011;28444;48.056;14.408;2022-07-23T05:52:04;11.40;;;5.43;;
38911;SDS011;28444;48.056;14.408;2022-07-23T05:54:33;5.78;;;4.72;;
38911;SDS011;28444;48.056;14.408;2022-07-23T05:57:01;7.13;;;4.55;;
38911;SDS011;28444;48.056;14.408;2022-07-23T05:59:28;14.57;;;5.32;;
38911;SDS011;28444;48.056;14.408;2022-07-23T06:01:55;9.68;;;5.03;;
38911;SDS011;28444;48.056;14.408;2022-07-23T06:04:22;7.50;;;4.75;;
38911;SDS011;28444;48.056;14.408;2022-07-23T06:06:49;8.50;;;4.75;;
38911;SDS011;28444;48.056;14.408;2022-07-23T06:09:15;5.72;;;4.13;;
38911;SDS011;28444;48.056;14.408;2022-07-23T06:11:42;8.98;;;5.00;;
38911;SDS011;28444;48.056;14.408;2022-07-23T06:14:09;4.68;;;3.75;;
38911;SDS011;28444;48.056;14.408;2022-07-23T06:16:36;13.85;;;4.80;;
38911;SDS011;28444;48.056;14.408;2022-07-23T06:19:02;10.48;;;4.55;;
38911;SDS011;28444;48.056;14.408;2022-07-23T06:21:30;6.15;;;4.43;;
38911;SDS011;28444;48.056;14.408;2022-07-23T06:24:13;8.48;;;4.03;;
38911;SDS011;28444;48.056;14.408;2022-07-23T06:26:40;5.65;;;4.40;;
38911;SDS011;28444;48.056;14.408;2022-07-23T06:29:07;5.30;;;4.00;;
38911;SDS011;28444;48.056;14.408;2022-07-23T06:31:33;4.53;;;4.03;;
38911;SDS011;28444;48.056;14.408;2022-07-23T06:34:01;7.00;;;4.43;;
38911;SDS011;28444;48.056;14.408;2022-07-23T06:36:27;5.60;;;4.35;;
38911;SDS011;28444;48.056;14.408;2022-07-23T06:38:54;4.78;;;4.03;;
38911;SDS011;28444;48.056;14.408;2022-07-23T06:41:21;6.97;;;4.32;;
38911;SDS011;28444;48.056;14.408;2022-07-23T06:43:48;7.13;;;3.80;;
38911;SDS011;28444;48.056;14.408;2022-07-23T06:46:15;7.30;;;3.72;;
38911;SDS011;28444;48.056;14.408;2022-07-23T06:48:43;7.95;;;4.53;;
38911;SDS011;28444;48.056;14.408;2022-07-23T06:51:09;5.22;;;4.07;;
38911;SDS011;28444;48.056;14.408;2022-07-23T06:53:36;4.57;;;4.00;;
38911;SDS011;28444;48.056;14.408;2022-07-23T06:56:03;11.13;;;4.00;;
38911;SDS011;28444;48.056;14.408;2022-07-23T06:58:29;6.78;;;4.03;;
38911;SDS011;28444;48.056;14.408;2022-07-23T07:00:56;7.95;;;3.55;;
38911;SDS011;28444;48.056;14.408;2022-07-23T07:03:23;10.32;;;4.07;;
38911;SDS011;28444;48.056;14.408;2022-07-23T07:05:49;4.28;;;3.70;;
38911;SDS011;28444;48.056;14.408;2022-07-23T07:08:16;5.63;;;4.10;;
38911;SDS011;28444;48.056;14.408;2022-07-23T07:10:43;4.57;;;3.60;;
38911;SDS011;28444;48.056;14.408;2022-07-23T07:13:10;6.88;;;4.05;;
38911;SDS011;28444;48.056;14.408;2022-07-23T07:15:36;8.30;;;4.20;;
38911;SDS011;28444;48.056;14.408;2022-07-23T07:18:03;6.13;;;4.00;;
38911;SDS011;28444;48.056;14.408;2022-07-23T07:20:30;11.77;;;4.15;;
38911;SDS011;28444;48.056;14.408;2022-07-23T07:22:57;4.82;;;3.95;;
38911;SDS011;28444;48.056;14.408;2022-07-23T07:25:23;7.57;;;3.97;;
38911;SDS011;28444;48.056;14.408;2022-07-23T07:27:50;4.72;;;3.65;;
38911;SDS011;28444;48.056;14.408;2022-07-23T07:30:17;7.47;;;3.83;;
38911;SDS011;28444;48.056;14.408;2022-07-23T07:32:43;8.77;;;3.88;;
38911;SDS011;28444;48.056;14.408;2022-07-23T07:35:25;4.35;;;3.80;;
38911;SDS011;28444;48.056;14.408;2022-07-23T07:37:52;4.72;;;3.55;;
38911;SDS011;28444;48.056;14.408;2022-07-23T07:40:19;5.63;;;3.45;;
38911;SDS011;28444;48.056;14.408;2022-07-23T07:42:51;4.50;;;3.65;;
38911;SDS011;28444;48.056;14.408;2022-07-23T07:45:22;3.60;;;3.20;;
38911;SDS011;28444;48.056;14.408;2022-07-23T07:47:51;3.47;;;3.00;;
38911;SDS011;28444;48.056;14.408;2022-07-23T07:50:19;5.43;;;3.40;;
38911;SDS011;28444;48.056;14.408;2022-07-23T07:52:47;5.38;;;3.45;;
38911;SDS011;28444;48.056;14.408;2022-07-23T07:55:14;3.70;;;3.40;;
38911;SDS011;28444;48.056;14.408;2022-07-23T07:57:43;4.95;;;3.38;;
38911;SDS011;28444;48.056;14.408;2022-07-23T08:00:15;5.22;;;3.60;;
38911;SDS011;28444;48.056;14.408;2022-07-23T08:02:44;5.50;;;3.42;;
38911;SDS011;28444;48.056;14.408;2022-07-23T08:05:20;6.00;;;3.08;;
38911;SDS011;28444;48.056;14.408;2022-07-23T08:07:53;4.60;;;3.17;;
38911;SDS011;28444;48.056;14.408;2022-07-23T08:10:21;4.10;;;3.45;;
38911;SDS011;28444;48.056;14.408;2022-07-23T08:12:49;5.50;;;3.58;;
38911;SDS011;28444;48.056;14.408;2022-07-23T08:15:19;4.22;;;3.10;;
38911;SDS011;28444;48.056;14.408;2022-07-23T08:17:46;4.32;;;3.10;;
38911;SDS011;28444;48.056;14.408;2022-07-23T08:20:15;4.78;;;3.63;;
38911;SDS011;28444;48.056;14.408;2022-07-23T08:22:49;4.97;;;3.67;;
38911;SDS011;28444;48.056;14.408;2022-07-23T08:25:26;6.60;;;3.75;;
38911;SDS011;28444;48.056;14.408;2022-07-23T08:27:54;4.10;;;3.42;;
38911;SDS011;28444;48.056;14.408;2022-07-23T08:30:21;4.40;;;3.25;;
38911;SDS011;28444;48.056;14.408;2022-07-23T08:32:56;4.20;;;3.70;;
38911;SDS011;28444;48.056;14.408;2022-07-23T08:35:32;6.15;;;3.53;;
38911;SDS011;28444;48.056;14.408;2022-07-23T08:38:03;5.05;;;3.88;;
38911;SDS011;28444;48.056;14.408;2022-07-23T08:40:33;6.72;;;3.97;;
38911;SDS011;28444;48.056;14.408;2022-07-23T08:43:09;3.40;;;3.10;;
38911;SDS011;28444;48.056;14.408;2022-07-23T08:45:41;4.50;;;3.88;;
38911;SDS011;28444;48.056;14.408;2022-07-23T08:48:14;4.15;;;3.75;;
38911;SDS011;28444;48.056;14.408;2022-07-23T08:50:43;3.95;;;3.55;;
38911;SDS011;28444;48.056;14.408;2022-07-23T08:53:11;6.75;;;3.88;;
38911;SDS011;28444;48.056;14.408;2022-07-23T08:55:40;9.38;;;4.20;;
38911;SDS011;28444;48.056;14.408;2022-07-23T08:58:09;7.28;;;3.65;;
38911;SDS011;28444;48.056;14.408;2022-07-23T09:00:36;5.57;;;4.00;;
38911;SDS011;28444;48.056;14.408;2022-07-23T09:03:03;7.97;;;3.50;;
38911;SDS011;28444;48.056;14.408;2022-07-23T09:05:29;7.18;;;3.92;;
38911;SDS011;28444;48.056;14.408;2022-07-23T09:08:03;5.72;;;3.67;;
38911;SDS011;28444;48.056;14.408;2022-07-23T09:13:48;5.40;;;3.75;;
38911;SDS011;28444;48.056;14.408;2022-07-23T09:16:19;5.93;;;3.78;;
38911;SDS011;28444;48.056;14.408;2022-07-23T09:18:54;8.57;;;3.55;;
38911;SDS011;28444;48.056;14.408;2022-07-23T09:21:26;7.30;;;3.65;;
38911;SDS011;28444;48.056;14.408;2022-07-23T09:26:42;4.45;;;3.92;;
38911;SDS011;28444;48.056;14.408;2022-07-23T09:29:17;7.03;;;3.78;;
38911;SDS011;28444;48.056;14.408;2022-07-23T09:34:39;4.65;;;3.97;;
38911;SDS011;28444;48.056;14.408;2022-07-23T09:37:10;4.47;;;3.50;;
38911;SDS011;28444;48.056;14.408;2022-07-23T09:39:47;7.07;;;3.35;;
38911;SDS011;28444;48.056;14.408;2022-07-23T09:42:23;6.63;;;3.70;;
38911;SDS011;28444;48.056;14.408;2022-07-23T09:44:53;4.32;;;3.75;;
38911;SDS011;28444;48.056;14.408;2022-07-23T09:47:25;5.13;;;3.80;;
38911;SDS011;28444;48.056;14.408;2022-07-23T09:50:09;5.57;;;4.13;;
38911;SDS011;28444;48.056;14.408;2022-07-23T09:52:49;10.10;;;3.95;;
38911;SDS011;28444;48.056;14.408;2022-07-23T09:55:16;10.40;;;3.83;;
38911;SDS011;28444;48.056;14.408;2022-07-23T09:57:44;5.05;;;3.80;;
38911;SDS011;28444;48.056;14.408;2022-07-23T10:00:15;9.85;;;4.78;;
38911;SDS011;28444;48.056;14.408;2022-07-23T10:02:42;8.55;;;4.75;;
38911;SDS011;28444;48.056;14.408;2022-07-23T10:05:12;5.88;;;4.28;;
38911;SDS011;28444;48.056;14.408;2022-07-23T10:07:40;6.82;;;4.47;;
38911;SDS011;28444;48.056;14.408;2022-07-23T10:10:06;9.00;;;4.65;;
38911;SDS011;28444;48.056;14.408;2022-07-23T10:12:34;5.68;;;4.40;;
38911;SDS011;28444;48.056;14.408;2022-07-23T10:15:17;7.75;;;4.68;;
38911;SDS011;28444;48.056;14.408;2022-07-23T10:17:44;7.15;;;5.22;;
38911;SDS011;28444;48.056;14.408;2022-07-23T10:20:10;6.32;;;5.05;;
38911;SDS011;28444;48.056;14.408;2022-07-23T10:22:42;6.72;;;4.88;;
38911;SDS011;28444;48.056;14.408;2022-07-23T10:30:37;6.60;;;4.10;;
38911;SDS011;28444;48.056;14.408;2022-07-23T10:33:41;9.05;;;4.80;;
38911;SDS011;28444;48.056;14.408;2022-07-23T10:36:20;9.05;;;4.55;;
38911;SDS011;28444;48.056;14.408;2022-07-23T10:41:46;9.15;;;4.57;;
38911;SDS011;28444;48.056;14.408;2022-07-23T10:44:13;6.82;;;5.05;;
38911;SDS011;28444;48.056;14.408;2022-07-23T10:46:54;7.45;;;5.15;;
38911;SDS011;28444;48.056;14.408;2022-07-23T10:49:34;8.02;;;4.97;;
38911;SDS011;28444;48.056;14.408;2022-07-23T10:54:48;7.80;;;4.50;;
38911;SDS011;28444;48.056;14.408;2022-07-23T10:57:24;9.38;;;4.72;;
38911;SDS011;28444;48.056;14.408;2022-07-23T11:02:52;8.82;;;5.15;;
38911;SDS011;28444;48.056;14.408;2022-07-23T11:05:21;8.43;;;5.10;;
38911;SDS011;28444;48.056;14.408;2022-07-23T11:10:55;5.38;;;4.80;;
38911;SDS011;28444;48.056;14.408;2022-07-23T11:13:29;6.38;;;4.80;;
38911;SDS011;28444;48.056;14.408;2022-07-23T11:16:13;12.80;;;4.97;;
38911;SDS011;28444;48.056;14.408;2022-07-23T11:24:17;8.50;;;4.85;;
38911;SDS011;28444;48.056;14.408;2022-07-23T11:26:52;6.22;;;4.80;;
38911;SDS011;28444;48.056;14.408;2022-07-23T11:35:24;6.25;;;4.35;;
38911;SDS011;28444;48.056;14.408;2022-07-23T11:37:54;8.65;;;5.00;;
38911;SDS011;28444;48.056;14.408;2022-07-23T11:40:30;5.72;;;4.03;;
38911;SDS011;28444;48.056;14.408;2022-07-23T11:42:58;6.43;;;4.35;;
38911;SDS011;28444;48.056;14.408;2022-07-23T11:45:33;10.65;;;4.32;;
38911;SDS011;28444;48.056;14.408;2022-07-23T11:48:02;10.50;;;4.68;;
38911;SDS011;28444;48.056;14.408;2022-07-23T11:50:31;5.72;;;4.25;;
38911;SDS011;28444;48.056;14.408;2022-07-23T11:52:58;6.70;;;4.25;;
38911;SDS011;28444;48.056;14.408;2022-07-23T11:55:25;10.48;;;4.80;;
38911;SDS011;28444;48.056;14.408;2022-07-23T11:57:52;7.63;;;4.75;;
38911;SDS011;28444;48.056;14.408;2022-07-23T12:00:20;5.32;;;4.80;;
38911;SDS011;28444;48.056;14.408;2022-07-23T12:02:50;6.53;;;4.75;;
38911;SDS011;28444;48.056;14.408;2022-07-23T12:05:23;5.90;;;4.97;;
38911;SDS011;28444;48.056;14.408;2022-07-23T12:07:51;6.13;;;4.50;;
38911;SDS011;28444;48.056;14.408;2022-07-23T12:10:27;10.05;;;5.72;;
38911;SDS011;28444;48.056;14.408;2022-07-23T12:13:01;5.43;;;4.25;;
38911;SDS011;28444;48.056;14.408;2022-07-23T12:15:31;7.82;;;4.75;;
38911;SDS011;28444;48.056;14.408;2022-07-23T12:18:06;6.88;;;4.75;;
38911;SDS011;28444;48.056;14.408;2022-07-23T12:20:38;7.60;;;4.97;;
38911;SDS011;28444;48.056;14.408;2022-07-23T12:23:07;9.43;;;5.18;;
38911;SDS011;28444;48.056;14.408;2022-07-23T12:25:44;6.45;;;4.97;;
38911;SDS011;28444;48.056;14.408;2022-07-23T12:28:15;9.48;;;5.25;;
38911;SDS011;28444;48.056;14.408;2022-07-23T12:31:02;6.78;;;4.40;;
38911;SDS011;28444;48.056;14.408;2022-07-23T12:35:58;6.65;;;5.95;;
38911;SDS011;28444;48.056;14.408;2022-07-23T12:38:39;5.53;;;4.80;;
38911;SDS011;28444;48.056;14.408;2022-07-23T12:41:08;7.63;;;5.22;;
38911;SDS011;28444;48.056;14.408;2022-07-23T12:43:39;6.28;;;5.00;;
38911;SDS011;28444;48.056;14.408;2022-07-23T12:48:51;6.75;;;5.63;;
38911;SDS011;28444;48.056;14.408;2022-07-23T12:51:20;6.75;;;4.85;;
38911;SDS011;28444;48.056;14.408;2022-07-23T12:53:52;7.47;;;5.75;;
38911;SDS011;28444;48.056;14.408;2022-07-23T12:56:31;6.72;;;5.53;;
38911;SDS011;28444;48.056;14.408;2022-07-23T13:01:32;7.95;;;4.97;;
38911;SDS011;28444;48.056;14.408;2022-07-23T13:04:04;6.40;;;5.78;;
38911;SDS011;28444;48.056;14.408;2022-07-23T13:06:48;5.20;;;4.75;;
38911;SDS011;28444;48.056;14.408;2022-07-23T13:09:26;11.70;;;5.25;;
38911;SDS011;28444;48.056;14.408;2022-07-23T13:11:59;6.20;;;5.05;;
38911;SDS011;28444;48.056;14.408;2022-07-23T13:14:26;5.45;;;4.88;;
38911;SDS011;28444;48.056;14.408;2022-07-23T13:16:54;8.73;;;5.10;;
38911;SDS011;28444;48.056;14.408;2022-07-23T13:19:25;9.55;;;5.47;;
38911;SDS011;28444;48.056;14.408;2022-07-23T13:21:53;6.57;;;5.88;;
38911;SDS011;28444;48.056;14.408;2022-07-23T13:24:20;6.75;;;5.60;;
38911;SDS011;28444;48.056;14.408;2022-07-23T13:26:47;6.25;;;4.75;;
38911;SDS011;28444;48.056;14.408;2022-07-23T13:29:17;6.57;;;5.65;;
38911;SDS011;28444;48.056;14.408;2022-07-23T13:31:45;10.63;;;5.90;;
38911;SDS011;28444;48.056;14.408;2022-07-23T13:34:13;6.00;;;5.03;;
38911;SDS011;28444;48.056;14.408;2022-07-23T13:36:39;5.85;;;5.25;;
38911;SDS011;28444;48.056;14.408;2022-07-23T13:39:06;7.47;;;5.00;;
38911;SDS011;28444;48.056;14.408;2022-07-23T13:41:35;8.48;;;5.20;;
38911;SDS011;28444;48.056;14.408;2022-07-23T13:44:03;8.32;;;4.57;;
38911;SDS011;28444;48.056;14.408;2022-07-23T13:46:32;6.28;;;4.72;;
38911;SDS011;28444;48.056;14.408;2022-07-23T13:49:00;4.25;;;3.63;;
38911;SDS011;28444;48.056;14.408;2022-07-23T13:51:28;6.13;;;4.30;;
38911;SDS011;28444;48.056;14.408;2022-07-23T13:53:55;4.60;;;3.85;;
38911;SDS011;28444;48.056;14.408;2022-07-23T13:56:25;5.82;;;4.05;;
38911;SDS011;28444;48.056;14.408;2022-07-23T13:58:52;5.28;;;4.38;;
38911;SDS011;28444;48.056;14.408;2022-07-23T14:01:19;6.78;;;4.30;;
38911;SDS011;28444;48.056;14.408;2022-07-23T14:03:46;4.47;;;4.07;;
38911;SDS011;28444;48.056;14.408;2022-07-23T14:06:13;5.57;;;4.63;;
38911;SDS011;28444;48.056;14.408;2022-07-23T14:08:42;6.50;;;4.35;;
38911;SDS011;28444;48.056;14.408;2022-07-23T14:11:30;4.88;;;3.75;;
38911;SDS011;28444;48.056;14.408;2022-07-23T14:13:58;7.25;;;4.05;;
38911;SDS011;28444;48.056;14.408;2022-07-23T14:16:27;5.05;;;4.30;;
38911;SDS011;28444;48.056;14.408;2022-07-23T14:18:53;4.28;;;3.53;;
38911;SDS011;28444;48.056;14.408;2022-07-23T14:21:20;4.35;;;3.72;;
38911;SDS011;28444;48.056;14.408;2022-07-23T14:23:47;4.30;;;3.35;;
38911;SDS011;28444;48.056;14.408;2022-07-23T14:26:14;4.63;;;3.70;;
38911;SDS011;28444;48.056;14.408;2022-07-23T14:28:42;5.45;;;3.88;;
38911;SDS011;28444;48.056;14.408;2022-07-23T14:31:09;5.68;;;4.78;;
38911;SDS011;28444;48.056;14.408;2022-07-23T14:33:46;6.15;;;4.47;;
38911;SDS011;28444;48.056;14.408;2022-07-23T14:36:14;5.68;;;4.68;;
38911;SDS011;28444;48.056;14.408;2022-07-23T14:38:41;7.75;;;4.32;;
38911;SDS011;28444;48.056;14.408;2022-07-23T14:41:08;5.25;;;3.72;;
38911;SDS011;28444;48.056;14.408;2022-07-23T14:43:36;4.65;;;4.13;;
38911;SDS011;28444;48.056;14.408;2022-07-23T14:46:04;7.18;;;3.97;;
38911;SDS011;28444;48.056;14.408;2022-07-23T14:48:31;4.50;;;4.10;;
38911;SDS011;28444;48.056;14.408;2022-07-23T14:50:58;5.57;;;3.97;;
38911;SDS011;28444;48.056;14.408;2022-07-23T14:53:25;6.38;;;4.13;;
38911;SDS011;28444;48.056;14.408;2022-07-23T14:55:52;4.97;;;4.07;;
38911;SDS011;28444;48.056;14.408;2022-07-23T14:58:20;7.60;;;4.22;;
38911;SDS011;28444;48.056;14.408;2022-07-23T15:00:47;5.45;;;4.00;;
38911;SDS011;28444;48.056;14.408;2022-07-23T15:03:14;6.70;;;3.85;;
38911;SDS011;28444;48.056;14.408;2022-07-23T15:05:41;7.60;;;4.10;;
38911;SDS011;28444;48.056;14.408;2022-07-23T15:08:08;4.90;;;4.15;;
38911;SDS011;28444;48.056;14.408;2022-07-23T15:10:35;7.07;;;3.70;;
38911;SDS011;28444;48.056;14.408;2022-07-23T15:13:03;4.45;;;3.75;;
38911;SDS011;28444;48.056;14.408;2022-07-23T15:15:30;4.78;;;3.40;;
38911;SDS011;28444;48.056;14.408;2022-07-23T15:17:57;5.28;;;3.75;;
38911;SDS011;28444;48.056;14.408;2022-07-23T15:20:24;5.25;;;4.00;;
38911;SDS011;28444;48.056;14.408;2022-07-23T15:23:03;5.03;;;4.10;;